sensor_id;sensor_type;location;lat;lon;timestamp;pressure;altitude;pressure_sealevel;temperature;humidity
62124;BME280;48110;47.532;19.078;2023-04-07T00:00:44;100163.19;;;2.71;100.00
62124;BME280;48110;47.532;19.078;2023-04-07T00:03:47;100167.00;;;2.67;100.00
62124;BME280;48110;47.532;19.078;2023-04-07T00:06:50;100167.34;;;2.62;100.00
62124;BME280;48110;47.532;19.078;2023-04-07T00:09:52;100165.94;;;2.58;100.00
62124;BME280;48110;47.532;19.078;2023-04-07T00:12:55;100165.13;;;2.57;100.00
62124;BME280;48110;47.532;19.078;2023-04-07T00:15:58;100174.53;;;2.60;100.00
62124;BME280;48110;47.532;19.078;2023-04-07T00:19:00;100161.66;;;2.57;100.00
62124;BME280;48110;47.532;19.078;2023-04-07T00:22:03;100158.47;;;2.53;100.00
62124;BME280;48110;47.532;19.078;2023-04-07T00:25:05;100151.19;;;2.57;100.00
62124;BME280;48110;47.532;19.078;2023-04-07T00:28:08;100146.66;;;2.59;100.00
62124;BME280;48110;47.532;19.078;2023-04-07T00:31:11;100154.25;;;2.62;100.00
62124;BME280;48110;47.532;19.078;2023-04-07T00:34:13;100149.88;;;2.62;100.00
62124;BME280;48110;47.532;19.078;2023-04-07T00:37:18;100145.34;;;2.65;100.00
62124;BME280;48110;47.532;19.078;2023-04-07T00:40:25;100143.31;;;2.57;100.00
62124;BME280;48110;47.532;19.078;2023-04-07T00:43:27;100144.88;;;2.71;100.00
62124;BME280;48110;47.532;19.078;2023-04-07T00:46:30;100139.53;;;2.61;100.00
62124;BME280;48110;47.532;19.078;2023-04-07T00:49:33;100146.66;;;2.70;100.00
62124;BME280;48110;47.532;19.078;2023-04-07T00:52:38;100142.94;;;2.73;100.00
62124;BME280;48110;47.532;19.078;2023-04-07T00:55:41;100139.47;;;2.72;100.00
62124;BME280;48110;47.532;19.078;2023-04-07T00:58:44;100151.25;;;2.78;100.00
62124;BME280;48110;47.532;19.078;2023-04-07T01:05:12;100141.72;;;2.77;100.00
62124;BME280;48110;47.532;19.078;2023-04-07T01:08:20;100140.88;;;2.76;100.00
62124;BME280;48110;47.532;19.078;2023-04-07T01:11:24;100138.03;;;2.79;100.00
62124;BME280;48110;47.532;19.078;2023-04-07T01:14:27;100129.25;;;2.69;100.00
62124;BME280;48110;47.532;19.078;2023-04-07T01:17:34;100119.75;;;2.68;100.00
62124;BME280;48110;47.532;19.078;2023-04-07T01:20:39;100125.09;;;2.67;100.00
62124;BME280;48110;47.532;19.078;2023-04-07T01:23:59;100124.97;;;2.68;100.00
62124;BME280;48110;47.532;19.078;2023-04-07T01:27:13;100116.28;;;2.68;100.00
62124;BME280;48110;47.532;19.078;2023-04-07T01:30:17;100119.72;;;2.79;100.00
62124;BME280;48110;47.532;19.078;2023-04-07T01:33:20;100114.59;;;2.78;100.00
62124;BME280;48110;47.532;19.078;2023-04-07T01:36:23;100122.44;;;2.78;100.00
62124;BME280;48110;47.532;19.078;2023-04-07T01:39:29;100117.47;;;2.75;100.00
62124;BME280;48110;47.532;19.078;2023-04-07T01:42:32;100118.16;;;2.77;100.00
62124;BME280;48110;47.532;19.078;2023-04-07T01:45:35;100109.47;;;2.76;100.00
62124;BME280;48110;47.532;19.078;2023-04-07T01:48:39;100111.84;;;2.79;100.00
62124;BME280;48110;47.532;19.078;2023-04-07T01:51:42;100106.13;;;2.85;100.00
62124;BME280;48110;47.532;19.078;2023-04-07T01:54:47;100112.78;;;2.78;100.00
62124;BME280;48110;47.532;19.078;2023-04-07T01:57:52;100114.94;;;2.84;100.00
62124;BME280;48110;47.532;19.078;2023-04-07T02:00:55;100114.59;;;2.78;100.00
62124;BME280;48110;47.532;19.078;2023-04-07T02:04:14;100112.06;;;2.76;100.00
62124;BME280;48110;47.532;19.078;2023-04-07T02:07:20;100102.78;;;2.83;100.00
62124;BME280;48110;47.532;19.078;2023-04-07T02:10:24;100107.91;;;2.85;100.00
62124;BME280;48110;47.532;19.078;2023-04-07T02:13:29;100113.75;;;2.77;100.00
62124;BME280;48110;47.532;19.078;2023-04-07T02:16:32;100112.78;;;2.78;100.00
62124;BME280;48110;47.532;19.078;2023-04-07T02:19:35;100107.84;;;2.64;100.00
62124;BME280;48110;47.532;19.078;2023-04-07T02:22:38;100110.59;;;2.62;100.00
62124;BME280;48110;47.532;19.078;2023-04-07T02:25:40;100107.00;;;2.63;100.00
62124;BME280;48110;47.532;19.078;2023-04-07T02:28:43;100108.56;;;2.66;100.00
62124;BME280;48110;47.532;19.078;2023-04-07T02:31:46;100107.00;;;2.63;100.00
62124;BME280;48110;47.532;19.078;2023-04-07T02:34:48;100104.59;;;2.72;100.00
62124;BME280;48110;47.532;19.078;2023-04-07T02:37:51;100107.31;;;2.81;100.00
62124;BME280;48110;47.532;19.078;2023-04-07T02:40:54;100112.59;;;2.70;100.00
62124;BME280;48110;47.532;19.078;2023-04-07T02:43:56;100105.13;;;2.66;100.00
62124;BME280;48110;47.532;19.078;2023-04-07T02:46:59;100106.84;;;2.76;100.00
62124;BME280;48110;47.532;19.078;2023-04-07T02:50:02;100101.34;;;2.90;100.00
62124;BME280;48110;47.532;19.078;2023-04-07T02:53:07;100116.00;;;2.82;100.00
62124;BME280;48110;47.532;19.078;2023-04-07T02:56:10;100109.81;;;2.83;100.00
62124;BME280;48110;47.532;19.078;2023-04-07T02:59:13;100105.88;;;2.77;100.00
62124;BME280;48110;47.532;19.078;2023-04-07T03:02:16;100099.25;;;2.73;100.00
62124;BME280;48110;47.532;19.078;2023-04-07T03:05:18;100101.59;;;2.76;100.00
62124;BME280;48110;47.532;19.078;2023-04-07T03:08:21;100101.00;;;2.84;100.00
62124;BME280;48110;47.532;19.078;2023-04-07T03:11:23;100101.25;;;2.81;100.00
62124;BME280;48110;47.532;19.078;2023-04-07T03:14:26;100108.84;;;2.84;100.00
62124;BME280;48110;47.532;19.078;2023-04-07T03:17:29;100104.22;;;2.76;100.00
62124;BME280;48110;47.532;19.078;2023-04-07T03:20:33;100093.97;;;2.84;100.00
62124;BME280;48110;47.532;19.078;2023-04-07T03:23:36;100092.75;;;2.88;100.00
62124;BME280;48110;47.532;19.078;2023-04-07T03:26:38;100102.22;;;2.80;100.00
62124;BME280;48110;47.532;19.078;2023-04-07T03:29:43;100106.13;;;2.85;100.00
62124;BME280;48110;47.532;19.078;2023-04-07T03:32:46;100105.59;;;2.91;100.00
62124;BME280;48110;47.532;19.078;2023-04-07T03:35:48;100105.28;;;2.85;100.00
62124;BME280;48110;47.532;19.078;2023-04-07T03:38:52;100099.31;;;2.83;100.00
62124;BME280;48110;47.532;19.078;2023-04-07T03:41:56;100102.31;;;2.78;100.00
62124;BME280;48110;47.532;19.078;2023-04-07T03:45:00;100104.09;;;2.78;100.00
62124;BME280;48110;47.532;19.078;2023-04-07T03:48:04;100103.22;;;2.88;100.00
62124;BME280;48110;47.532;19.078;2023-04-07T03:51:07;100103.22;;;2.88;100.00
62124;BME280;48110;47.532;19.078;2023-04-07T03:54:10;100103.16;;;2.79;100.00
62124;BME280;48110;47.532;19.078;2023-04-07T03:57:13;100107.63;;;2.88;100.00
62124;BME280;48110;47.532;19.078;2023-04-07T04:00:19;100115.78;;;2.74;100.00
62124;BME280;48110;47.532;19.078;2023-04-07T04:03:26;100112.41;;;2.83;100.00
62124;BME280;48110;47.532;19.078;2023-04-07T04:06:30;100108.19;;;2.71;100.00
62124;BME280;48110;47.532;19.078;2023-04-07T04:09:34;100111.47;;;2.84;100.00
62124;BME280;48110;47.532;19.078;2023-04-07T04:12:37;100113.97;;;2.85;100.00
62124;BME280;48110;47.532;19.078;2023-04-07T04:15:41;100121.03;;;2.74;100.00
62124;BME280;48110;47.532;19.078;2023-04-07T04:18:46;100127.56;;;2.79;100.00
62124;BME280;48110;47.532;19.078;2023-04-07T04:21:49;100131.09;;;2.89;100.00
62124;BME280;48110;47.532;19.078;2023-04-07T04:24:55;100135.87;;;2.84;100.00
62124;BME280;48110;47.532;19.078;2023-04-07T04:27:58;100137.09;;;2.80;100.00
62124;BME280;48110;47.532;19.078;2023-04-07T04:31:01;100135.06;;;2.73;100.00
62124;BME280;48110;47.532;19.078;2023-04-07T04:34:07;100136.38;;;2.78;100.00
62124;BME280;48110;47.532;19.078;2023-04-07T04:37:09;100141.44;;;2.91;100.00
62124;BME280;48110;47.532;19.078;2023-04-07T04:40:16;100135.87;;;2.84;100.00
62124;BME280;48110;47.532;19.078;2023-04-07T04:43:20;100133.66;;;3.00;100.00
62124;BME280;48110;47.532;19.078;2023-04-07T04:46:24;100137.12;;;3.01;100.00
62124;BME280;48110;47.532;19.078;2023-04-07T04:49:28;100139.50;;;3.04;100.00
62124;BME280;48110;47.532;19.078;2023-04-07T04:52:33;100146.28;;;3.06;100.00
62124;BME280;48110;47.532;19.078;2023-04-07T04:55:37;100149.34;;;3.12;100.00
62124;BME280;48110;47.532;19.078;2023-04-07T04:58:42;100140.53;;;3.13;100.00
62124;BME280;48110;47.532;19.078;2023-04-07T05:01:49;100134.91;;;3.17;100.00
62124;BME280;48110;47.532;19.078;2023-04-07T05:04:52;100154.34;;;3.15;100.00
62124;BME280;48110;47.532;19.078;2023-04-07T05:07:55;100157.69;;;3.05;100.00
62124;BME280;48110;47.532;19.078;2023-04-07T05:10:59;100159.37;;;3.06;100.00
62124;BME280;48110;47.532;19.078;2023-04-07T05:14:03;100157.94;;;3.14;100.00
62124;BME280;48110;47.532;19.078;2023-04-07T05:17:06;100156.81;;;3.16;100.00
62124;BME280;48110;47.532;19.078;2023-04-07T05:20:09;100158.00;;;3.23;100.00
62124;BME280;48110;47.532;19.078;2023-04-07T05:23:13;100163.00;;;3.47;100.00
62124;BME280;48110;47.532;19.078;2023-04-07T05:26:17;100165.25;;;3.52;100.00
62124;BME280;48110;47.532;19.078;2023-04-07T05:29:20;100171.22;;;3.63;100.00
62124;BME280;48110;47.532;19.078;2023-04-07T05:32:25;100168.94;;;3.70;100.00
62124;BME280;48110;47.532;19.078;2023-04-07T05:35:29;100169.50;;;3.73;100.00
62124;BME280;48110;47.532;19.078;2023-04-07T05:38:32;100178.81;;;3.77;100.00
62124;BME280;48110;47.532;19.078;2023-04-07T05:41:37;100182.75;;;3.72;100.00
62124;BME280;48110;47.532;19.078;2023-04-07T05:44:39;100177.13;;;3.76;100.00
62124;BME280;48110;47.532;19.078;2023-04-07T05:47:42;100182.56;;;3.84;100.00
62124;BME280;48110;47.532;19.078;2023-04-07T05:50:45;100186.19;;;3.93;100.00
62124;BME280;48110;47.532;19.078;2023-04-07T05:53:49;100178.91;;;3.97;100.00
62124;BME280;48110;47.532;19.078;2023-04-07T05:56:54;100190.47;;;3.94;100.00
62124;BME280;48110;47.532;19.078;2023-04-07T05:59:58;100180.53;;;3.98;100.00
62124;BME280;48110;47.532;19.078;2023-04-07T06:03:00;100178.47;;;3.91;100.00
62124;BME280;48110;47.532;19.078;2023-04-07T06:06:04;100167.19;;;4.01;100.00
62124;BME280;48110;47.532;19.078;2023-04-07T06:09:07;100182.22;;;3.99;100.00
62124;BME280;48110;47.532;19.078;2023-04-07T06:12:10;100183.37;;;4.06;100.00
62124;BME280;48110;47.532;19.078;2023-04-07T06:15:13;100176.19;;;4.08;100.00
62124;BME280;48110;47.532;19.078;2023-04-07T06:18:17;100184.09;;;3.87;100.00
62124;BME280;48110;47.532;19.078;2023-04-07T06:21:19;100171.19;;;4.05;100.00
62124;BME280;48110;47.532;19.078;2023-04-07T06:24:22;100183.81;;;4.11;100.00
62124;BME280;48110;47.532;19.078;2023-04-07T06:27:26;100178.94;;;4.06;100.00
62124;BME280;48110;47.532;19.078;2023-04-07T06:30:30;100181.34;;;4.19;100.00
62124;BME280;48110;47.532;19.078;2023-04-07T06:33:32;100184.09;;;4.17;100.00
62124;BME280;48110;47.532;19.078;2023-04-07T06:36:35;100194.91;;;3.73;100.00
62124;BME280;48110;47.532;19.078;2023-04-07T06:39:39;100199.25;;;3.42;100.00
62124;BME280;48110;47.532;19.078;2023-04-07T06:42:41;100200.59;;;3.36;100.00
62124;BME280;48110;47.532;19.078;2023-04-07T06:45:44;100199.06;;;3.34;100.00
62124;BME280;48110;47.532;19.078;2023-04-07T06:48:47;100209.47;;;3.24;100.00
62124;BME280;48110;47.532;19.078;2023-04-07T06:51:49;100207.88;;;3.33;100.00
62124;BME280;48110;47.532;19.078;2023-04-07T06:54:52;100210.06;;;3.28;100.00
62124;BME280;48110;47.532;19.078;2023-04-07T06:57:54;100211.50;;;3.21;100.00
62124;BME280;48110;47.532;19.078;2023-04-07T07:00:59;100212.53;;;3.29;100.00
62124;BME280;48110;47.532;19.078;2023-04-07T07:04:02;100218.03;;;3.26;100.00
62124;BME280;48110;47.532;19.078;2023-04-07T07:07:05;100209.03;;;3.19;100.00
62124;BME280;48110;47.532;19.078;2023-04-07T07:10:08;100216.28;;;3.16;100.00
62124;BME280;48110;47.532;19.078;2023-04-07T07:13:11;100218.97;;;3.25;100.00
62124;BME280;48110;47.532;19.078;2023-04-07T07:16:14;100227.19;;;3.32;100.00
62124;BME280;48110;47.532;19.078;2023-04-07T07:19:17;100240.84;;;3.46;100.00
62124;BME280;48110;47.532;19.078;2023-04-07T07:22:19;100244.22;;;3.37;100.00
62124;BME280;48110;47.532;19.078;2023-04-07T07:25:22;100251.63;;;3.32;100.00
62124;BME280;48110;47.532;19.078;2023-04-07T07:28:24;100249.03;;;3.21;100.00
62124;BME280;48110;47.532;19.078;2023-04-07T07:31:27;100261.00;;;3.35;100.00
62124;BME280;48110;47.532;19.078;2023-04-07T07:34:30;100258.53;;;3.33;100.00
62124;BME280;48110;47.532;19.078;2023-04-07T07:37:33;100248.62;;;3.37;100.00
62124;BME280;48110;47.532;19.078;2023-04-07T07:40:35;100250.66;;;3.33;100.00
62124;BME280;48110;47.532;19.078;2023-04-07T07:43:38;100251.56;;;3.12;100.00
62124;BME280;48110;47.532;19.078;2023-04-07T07:46:40;100259.31;;;3.13;100.00
62124;BME280;48110;47.532;19.078;2023-04-07T07:49:43;100263.19;;;3.30;100.00
62124;BME280;48110;47.532;19.078;2023-04-07T07:52:45;100268.72;;;3.47;100.00
62124;BME280;48110;47.532;19.078;2023-04-07T07:55:49;100271.88;;;3.62;100.00
62124;BME280;48110;47.532;19.078;2023-04-07T07:58:51;100277.34;;;3.91;100.00
62124;BME280;48110;47.532;19.078;2023-04-07T08:01:54;100287.13;;;3.89;100.00
62124;BME280;48110;47.532;19.078;2023-04-07T08:04:57;100288.16;;;3.77;100.00
62124;BME280;48110;47.532;19.078;2023-04-07T08:07:59;100292.72;;;3.96;100.00
62124;BME280;48110;47.532;19.078;2023-04-07T08:11:02;100292.56;;;3.76;100.00
62124;BME280;48110;47.532;19.078;2023-04-07T08:14:05;100289.19;;;4.06;100.00
62124;BME280;48110;47.532;19.078;2023-04-07T08:17:12;100287.87;;;4.21;100.00
62124;BME280;48110;47.532;19.078;2023-04-07T08:20:15;100290.97;;;4.26;100.00
62124;BME280;48110;47.532;19.078;2023-04-07T08:23:18;100295.81;;;4.31;100.00
62124;BME280;48110;47.532;19.078;2023-04-07T08:26:21;100298.88;;;4.36;100.00
62124;BME280;48110;47.532;19.078;2023-04-07T08:29:24;100297.94;;;4.37;100.00
62124;BME280;48110;47.532;19.078;2023-04-07T08:32:44;100298.16;;;4.24;100.00
62124;BME280;48110;47.532;19.078;2023-04-07T08:35:47;100304.84;;;4.38;100.00
62124;BME280;48110;47.532;19.078;2023-04-07T08:38:49;100300.50;;;4.48;100.00
62124;BME280;48110;47.532;19.078;2023-04-07T08:41:52;100303.06;;;4.69;100.00
62124;BME280;48110;47.532;19.078;2023-04-07T08:44:56;100309.88;;;4.81;100.00
62124;BME280;48110;47.532;19.078;2023-04-07T08:48:03;100304.09;;;4.87;100.00
62124;BME280;48110;47.532;19.078;2023-04-07T08:51:08;100307.69;;;4.86;100.00
62124;BME280;48110;47.532;19.078;2023-04-07T08:54:12;100313.84;;;5.06;100.00
62124;BME280;48110;47.532;19.078;2023-04-07T08:57:15;100312.38;;;5.13;100.00
62124;BME280;48110;47.532;19.078;2023-04-07T09:00:19;100308.59;;;5.06;100.00
62124;BME280;48110;47.532;19.078;2023-04-07T09:03:22;100310.03;;;4.89;100.00
62124;BME280;48110;47.532;19.078;2023-04-07T09:06:26;100306.62;;;4.89;100.00
62124;BME280;48110;47.532;19.078;2023-04-07T09:09:28;100313.62;;;4.78;100.00
62124;BME280;48110;47.532;19.078;2023-04-07T09:12:31;100300.91;;;5.52;100.00
62124;BME280;48110;47.532;19.078;2023-04-07T09:15:34;100315.22;;;5.98;100.00
62124;BME280;48110;47.532;19.078;2023-04-07T09:18:40;100310.91;;;5.78;100.00
62124;BME280;48110;47.532;19.078;2023-04-07T09:21:47;100307.63;;;5.95;100.00
62124;BME280;48110;47.532;19.078;2023-04-07T09:24:51;100308.03;;;6.00;100.00
62124;BME280;48110;47.532;19.078;2023-04-07T09:27:57;100314.09;;;5.91;100.00
62124;BME280;48110;47.532;19.078;2023-04-07T09:31:00;100305.56;;;6.45;100.00
62124;BME280;48110;47.532;19.078;2023-04-07T09:34:03;100311.44;;;6.29;100.00
62124;BME280;48110;47.532;19.078;2023-04-07T09:37:06;100307.66;;;6.41;100.00
62124;BME280;48110;47.532;19.078;2023-04-07T09:40:12;100305.94;;;5.75;100.00
62124;BME280;48110;47.532;19.078;2023-04-07T09:43:27;100310.47;;;5.53;100.00
62124;BME280;48110;47.532;19.078;2023-04-07T09:46:29;100303.66;;;6.37;100.00
62124;BME280;48110;47.532;19.078;2023-04-07T09:49:32;100309.94;;;6.64;100.00
62124;BME280;48110;47.532;19.078;2023-04-07T09:52:47;100308.75;;;7.40;100.00
62124;BME280;48110;47.532;19.078;2023-04-07T09:55:50;100306.59;;;6.98;100.00
62124;BME280;48110;47.532;19.078;2023-04-07T09:58:53;100316.56;;;7.05;100.00
62124;BME280;48110;47.532;19.078;2023-04-07T10:01:56;100313.25;;;7.30;100.00
62124;BME280;48110;47.532;19.078;2023-04-07T10:04:59;100311.44;;;7.66;100.00
62124;BME280;48110;47.532;19.078;2023-04-07T10:08:02;100312.19;;;6.59;100.00
62124;BME280;48110;47.532;19.078;2023-04-07T10:11:05;100306.28;;;7.11;100.00
62124;BME280;48110;47.532;19.078;2023-04-07T10:14:10;100317.78;;;7.91;100.00
62124;BME280;48110;47.532;19.078;2023-04-07T10:17:13;100312.16;;;7.50;100.00
62124;BME280;48110;47.532;19.078;2023-04-07T10:20:20;100311.31;;;7.50;100.00
62124;BME280;48110;47.532;19.078;2023-04-07T10:23:25;100312.44;;;7.47;100.00
62124;BME280;48110;47.532;19.078;2023-04-07T10:26:31;100321.81;;;6.87;100.00
62124;BME280;48110;47.532;19.078;2023-04-07T10:29:36;100310.16;;;7.52;100.00
62124;BME280;48110;47.532;19.078;2023-04-07T10:32:47;100317.50;;;7.58;100.00
62124;BME280;48110;47.532;19.078;2023-04-07T10:36:01;100318.06;;;7.34;100.00
62124;BME280;48110;47.532;19.078;2023-04-07T10:49:07;100319.59;;;8.08;95.85
62124;BME280;48110;47.532;19.078;2023-04-07T10:55:29;100322.28;;;9.27;94.68
62124;BME280;48110;47.532;19.078;2023-04-07T10:58:34;100319.53;;;8.69;93.96
62124;BME280;48110;47.532;19.078;2023-04-07T11:01:38;100323.09;;;8.86;94.56
62124;BME280;48110;47.532;19.078;2023-04-07T11:04:45;100322.75;;;8.81;85.94
62124;BME280;48110;47.532;19.078;2023-04-07T11:07:50;100324.87;;;7.90;93.73
62124;BME280;48110;47.532;19.078;2023-04-07T11:10:52;100315.13;;;7.37;99.81
62124;BME280;48110;47.532;19.078;2023-04-07T11:13:55;100314.03;;;7.58;100.00
62124;BME280;48110;47.532;19.078;2023-04-07T11:16:58;100319.06;;;8.04;100.00
62124;BME280;48110;47.532;19.078;2023-04-07T11:20:03;100317.81;;;8.34;100.00
62124;BME280;48110;47.532;19.078;2023-04-07T11:23:05;100324.00;;;8.43;96.76
62124;BME280;48110;47.532;19.078;2023-04-07T11:26:09;100323.28;;;8.33;90.32
62124;BME280;48110;47.532;19.078;2023-04-07T11:29:14;100327.72;;;8.58;93.18
62124;BME280;48110;47.532;19.078;2023-04-07T11:32:21;100327.31;;;8.45;93.19
62124;BME280;48110;47.532;19.078;2023-04-07T11:35:26;100314.22;;;8.61;92.73
62124;BME280;48110;47.532;19.078;2023-04-07T11:38:34;100318.41;;;8.28;93.82
62124;BME280;48110;47.532;19.078;2023-04-07T11:41:44;100323.75;;;8.54;90.71
62124;BME280;48110;47.532;19.078;2023-04-07T11:44:47;100327.06;;;8.30;89.73
62124;BME280;48110;47.532;19.078;2023-04-07T11:47:49;100318.59;;;8.09;94.04
62124;BME280;48110;47.532;19.078;2023-04-07T11:50:53;100319.25;;;8.28;94.20
62124;BME280;48110;47.532;19.078;2023-04-07T11:53:55;100316.47;;;8.30;90.80
62124;BME280;48110;47.532;19.078;2023-04-07T11:56:58;100310.97;;;8.06;97.32
62124;BME280;48110;47.532;19.078;2023-04-07T12:00:04;100314.41;;;8.24;98.81
62124;BME280;48110;47.532;19.078;2023-04-07T12:03:10;100318.91;;;7.70;94.18
62124;BME280;48110;47.532;19.078;2023-04-07T12:06:25;100322.44;;;7.26;100.00
62124;BME280;48110;47.532;19.078;2023-04-07T12:09:29;100319.22;;;7.50;99.90
62124;BME280;48110;47.532;19.078;2023-04-07T12:12:33;100324.19;;;7.70;100.00
62124;BME280;48110;47.532;19.078;2023-04-07T12:15:36;100323.53;;;7.68;100.00
62124;BME280;48110;47.532;19.078;2023-04-07T12:18:38;100321.34;;;7.64;98.16
62124;BME280;48110;47.532;19.078;2023-04-07T12:21:41;100318.22;;;7.51;99.06
62124;BME280;48110;47.532;19.078;2023-04-07T12:24:45;100313.94;;;7.05;100.00
62124;BME280;48110;47.532;19.078;2023-04-07T12:27:47;100307.97;;;7.03;100.00
62124;BME280;48110;47.532;19.078;2023-04-07T12:30:50;100304.25;;;7.23;100.00
62124;BME280;48110;47.532;19.078;2023-04-07T12:33:52;100307.81;;;7.31;94.97
62124;BME280;48110;47.532;19.078;2023-04-07T12:36:55;100312.31;;;7.21;98.92
62124;BME280;48110;47.532;19.078;2023-04-07T12:39:57;100307.75;;;6.96;96.92
62124;BME280;48110;47.532;19.078;2023-04-07T12:43:01;100306.34;;;7.02;100.00
62124;BME280;48110;47.532;19.078;2023-04-07T12:46:03;100314.72;;;7.15;100.00
62124;BME280;48110;47.532;19.078;2023-04-07T12:49:07;100310.88;;;6.82;100.00
62124;BME280;48110;47.532;19.078;2023-04-07T12:52:09;100318.72;;;6.91;100.00
62124;BME280;48110;47.532;19.078;2023-04-07T12:55:12;100317.75;;;7.20;100.00
62124;BME280;48110;47.532;19.078;2023-04-07T12:58:15;100318.06;;;7.07;96.04
62124;BME280;48110;47.532;19.078;2023-04-07T13:01:19;100317.28;;;7.07;99.17
62124;BME280;48110;47.532;19.078;2023-04-07T13:04:21;100320.09;;;6.95;100.00
62124;BME280;48110;47.532;19.078;2023-04-07T13:07:25;100324.84;;;6.92;100.00
62124;BME280;48110;47.532;19.078;2023-04-07T13:10:28;100320.94;;;6.96;100.00
62124;BME280;48110;47.532;19.078;2023-04-07T13:13:31;100322.13;;;6.74;100.00
62124;BME280;48110;47.532;19.078;2023-04-07T13:16:33;100321.16;;;6.75;100.00
62124;BME280;48110;47.532;19.078;2023-04-07T13:19:36;100320.09;;;6.95;100.00
62124;BME280;48110;47.532;19.078;2023-04-07T13:22:38;100319.78;;;6.98;100.00
62124;BME280;48110;47.532;19.078;2023-04-07T13:25:56;100314.91;;;7.04;100.00
62124;BME280;48110;47.532;19.078;2023-04-07T13:28:59;100321.50;;;6.53;100.00
62124;BME280;48110;47.532;19.078;2023-04-07T13:32:05;100322.63;;;6.41;100.00
62124;BME280;48110;47.532;19.078;2023-04-07T13:35:08;100317.94;;;6.81;100.00
62124;BME280;48110;47.532;19.078;2023-04-07T13:38:10;100318.97;;;6.98;100.00
62124;BME280;48110;47.532;19.078;2023-04-07T13:41:13;100316.44;;;7.06;100.00
62124;BME280;48110;47.532;19.078;2023-04-07T13:44:15;100324.19;;;7.08;100.00
62124;BME280;48110;47.532;19.078;2023-04-07T13:47:18;100330.47;;;7.07;100.00
62124;BME280;48110;47.532;19.078;2023-04-07T13:50:21;100330.47;;;7.07;100.00
62124;BME280;48110;47.532;19.078;2023-04-07T13:53:23;100335.09;;;6.95;100.00
62124;BME280;48110;47.532;19.078;2023-04-07T13:56:26;100329.00;;;6.58;100.00
62124;BME280;48110;47.532;19.078;2023-04-07T13:59:28;100331.72;;;6.66;100.00
62124;BME280;48110;47.532;19.078;2023-04-07T14:02:31;100325.31;;;6.68;100.00
62124;BME280;48110;47.532;19.078;2023-04-07T14:05:34;100332.34;;;6.87;100.00
62124;BME280;48110;47.532;19.078;2023-04-07T14:08:37;100336.41;;;6.81;100.00
62124;BME280;48110;47.532;19.078;2023-04-07T14:11:39;100329.16;;;6.83;100.00
62124;BME280;48110;47.532;19.078;2023-04-07T14:14:42;100331.97;;;6.82;100.00
62124;BME280;48110;47.532;19.078;2023-04-07T14:17:45;100334.38;;;6.66;100.00
62124;BME280;48110;47.532;19.078;2023-04-07T14:20:47;100332.06;;;6.90;100.00
62124;BME280;48110;47.532;19.078;2023-04-07T14:23:50;100325.81;;;6.91;100.00
62124;BME280;48110;47.532;19.078;2023-04-07T14:26:53;100332.06;;;6.90;100.00
62124;BME280;48110;47.532;19.078;2023-04-07T14:29:56;100335.78;;;6.87;100.00
62124;BME280;48110;47.532;19.078;2023-04-07T14:33:00;100331.91;;;6.91;100.00
62124;BME280;48110;47.532;19.078;2023-04-07T14:36:06;100335.19;;;6.66;100.00
62124;BME280;48110;47.532;19.078;2023-04-07T14:39:08;100343.72;;;6.41;100.00
62124;BME280;48110;47.532;19.078;2023-04-07T14:42:11;100347.00;;;6.62;100.00
62124;BME280;48110;47.532;19.078;2023-04-07T14:45:14;100347.34;;;6.86;100.00
62124;BME280;48110;47.532;19.078;2023-04-07T14:48:17;100347.38;;;6.77;100.00
62124;BME280;48110;47.532;19.078;2023-04-07T14:51:19;100343.13;;;6.57;100.00
62124;BME280;48110;47.532;19.078;2023-04-07T14:54:22;100344.94;;;6.56;100.00
62124;BME280;48110;47.532;19.078;2023-04-07T14:57:27;100340.50;;;6.57;100.00
62124;BME280;48110;47.532;19.078;2023-04-07T15:00:30;100344.91;;;6.66;100.00
62124;BME280;48110;47.532;19.078;2023-04-07T15:03:32;100344.06;;;6.65;100.00
62124;BME280;48110;47.532;19.078;2023-04-07T15:06:41;100339.03;;;6.81;100.00
62124;BME280;48110;47.532;19.078;2023-04-07T15:09:46;100349.81;;;6.51;100.00
62124;BME280;48110;47.532;19.078;2023-04-07T15:12:49;100353.25;;;6.61;100.00
62124;BME280;48110;47.532;19.078;2023-04-07T15:15:51;100351.84;;;6.67;100.00
62124;BME280;48110;47.532;19.078;2023-04-07T15:18:54;100351.72;;;6.59;100.00
62124;BME280;48110;47.532;19.078;2023-04-07T15:22:00;100349.00;;;6.41;100.00
62124;BME280;48110;47.532;19.078;2023-04-07T15:25:03;100348.47;;;6.28;100.00
62124;BME280;48110;47.532;19.078;2023-04-07T15:28:05;100350.81;;;6.21;100.00
62124;BME280;48110;47.532;19.078;2023-04-07T15:31:09;100357.62;;;6.24;100.00
62124;BME280;48110;47.532;19.078;2023-04-07T15:34:12;100348.44;;;6.37;100.00
62124;BME280;48110;47.532;19.078;2023-04-07T15:37:15;100348.75;;;6.15;100.00
62124;BME280;48110;47.532;19.078;2023-04-07T15:40:19;100352.34;;;6.24;100.00
62124;BME280;48110;47.532;19.078;2023-04-07T15:43:22;100353.59;;;6.29;100.00
62124;BME280;48110;47.532;19.078;2023-04-07T15:46:25;100341.09;;;6.31;100.00
62124;BME280;48110;47.532;19.078;2023-04-07T15:49:28;100354.81;;;6.25;100.00
62124;BME280;48110;47.532;19.078;2023-04-07T15:52:30;100356.78;;;6.33;100.00
62124;BME280;48110;47.532;19.078;2023-04-07T15:55:33;100354.97;;;6.33;100.00
62124;BME280;48110;47.532;19.078;2023-04-07T15:58:36;100361.91;;;6.15;100.00
62124;BME280;48110;47.532;19.078;2023-04-07T16:01:39;100358.72;;;6.21;100.00
62124;BME280;48110;47.532;19.078;2023-04-07T16:04:42;100363.44;;;6.27;100.00